San Austin — WDE5041 — position and weather

sailwx.info

Track history (hours):
 
Tides and Currents Weather Stations Pressure Air Temp Water Temp Dewpoint Dewpoint Depression Visibility Wind Speed Wind Dir Waves Ship Positions

San Austin

Owner: Buffalo Mariner Service, Inc., Houston, TX. More information available from US FCC via Universal Licensing System and Coast Guard Vessel Documentation Center.

Last reported at 2018-Jun-21 09:34 UTC. Time now 2018-Jun-21 17:29 UTC.
Position N 29°43' W 095°01'.

Length 20 m; draft 3.2 m.

Type: Tug. MMSI: 367361210.

Date/timePositionNaut miles runAvg speedWind from/ knotsBaromVisibWave heightAir tempDewpointWater temp
2018-Jun-21 09:34N 29°43' W 095°01'1 7.0
2018-Jun-21 09:29N 29°43' W 095°01'2 4.8
2018-Jun-21 09:00N 29°41' W 094°60'0 0.4
2018-Jun-21 08:28N 29°41' W 094°60'0 0.0
2018-Jun-21 07:58N 29°41' W 094°60'0 0.0
2018-Jun-21 07:23N 29°41' W 094°60'0 0.0
2018-Jun-21 06:59N 29°41' W 094°60'0 0.0
2018-Jun-21 06:27N 29°41' W 094°60'0 0.0
2018-Jun-21 05:58N 29°41' W 094°60'0 0.0
2018-Jun-21 05:30N 29°41' W 094°60'0 0.0
2018-Jun-21 04:59N 29°41' W 094°60'0 0.0
2018-Jun-21 04:29N 29°41' W 094°60'0 0.0
2018-Jun-21 03:58N 29°41' W 094°60'0 0.0
2018-Jun-21 03:28N 29°41' W 094°60'0 0.0
2018-Jun-21 02:59N 29°41' W 094°60'0 0.0
2018-Jun-21 02:30N 29°41' W 094°60'0 0.0
2018-Jun-21 01:59N 29°41' W 094°60'0 0.0
2018-Jun-21 01:29N 29°41' W 094°60'0 0.0
2018-Jun-21 00:59N 29°41' W 094°60'0 0.0
2018-Jun-21 00:30N 29°41' W 094°60'0 0.0
2018-Jun-20 23:54N 29°41' W 094°60'0 0.0
2018-Jun-20 23:29N 29°41' W 094°60'0 0.0
2018-Jun-20 23:00N 29°41' W 094°60'1 2.1
2018-Jun-20 22:29N 29°42' W 095°00'7 0.2
2018-Jun-19 09:33N 29°46' W 095°06'  
2018-Jun-16 23:06N 29°42' W 095°01'1 8.0
2018-Jun-16 22:59N 29°42' W 095°00'1 2.0
2018-Jun-16 22:23N 29°41' W 095°00'0 0.0
2018-Jun-16 21:56N 29°41' W 095°00'0 0.0
2018-Jun-16 21:29N 29°41' W 095°00'0 0.0
2018-Jun-16 20:57N 29°41' W 095°00'0 0.0
2018-Jun-16 20:25N 29°41' W 095°00'0 0.0
2018-Jun-16 19:56N 29°41' W 095°00'0 0.0
2018-Jun-16 19:30N 29°41' W 095°00'0 0.0
2018-Jun-16 18:59N 29°41' W 095°00'0 0.0
2018-Jun-16 18:29N 29°41' W 095°00'0 0.0
2018-Jun-16 18:00N 29°41' W 095°00'0 0.0
2018-Jun-16 17:30N 29°41' W 095°00'0 0.0
2018-Jun-16 17:00N 29°41' W 095°00'0 0.0
2018-Jun-16 16:30N 29°41' W 095°00'0 0.0
2018-Jun-16 16:00N 29°41' W 095°00'0 0.0
2018-Jun-16 15:29N 29°41' W 095°00'1 1.9
2018-Jun-16 15:00N 29°42' W 094°60'7 0.2
2018-Jun-15 08:12N 29°46' W 095°06'2 4.7
2018-Jun-15 07:47N 29°45' W 095°04'3 1.5
2018-Jun-15 05:55N 29°44' W 095°01'0 0.0
2018-Jun-15 04:17N 29°44' W 095°01'0 0.0
2018-Jun-15 03:55N 29°44' W 095°01'0 0.0
2018-Jun-15 03:30N 29°44' W 095°01'0 0.0
2018-Jun-15 01:50N 29°44' W 095°01'2 0.5
2018-Jun-14 22:52N 29°42' W 095°01'2 4.6
2018-Jun-14 22:30N 29°41' W 094°60'0 0.0
2018-Jun-14 22:00N 29°41' W 094°60'0 0.0
2018-Jun-14 21:30N 29°41' W 094°60'0 0.0
2018-Jun-14 20:43N 29°41' W 094°60'0 0.0
2018-Jun-14 20:20N 29°41' W 094°60'0 0.0
2018-Jun-14 19:57N 29°41' W 094°60'0 0.0
2018-Jun-14 19:20N 29°41' W 094°60'0 0.0
2018-Jun-14 19:00N 29°41' W 094°60'0 0.0
2018-Jun-14 18:30N 29°41' W 094°60'0 0.0
2018-Jun-14 18:00N 29°41' W 094°60'0 0.0
2018-Jun-14 17:30N 29°41' W 094°60'0 0.0
2018-Jun-14 16:59N 29°41' W 094°60'0 0.0
2018-Jun-14 16:30N 29°41' W 094°60'0 0.0
2018-Jun-14 16:00N 29°41' W 094°60'0 0.0
2018-Jun-14 15:29N 29°41' W 094°60'0 0.0
2018-Jun-14 15:00N 29°41' W 094°60'0 0.0
2018-Jun-14 14:30N 29°41' W 094°60'0 0.0
2018-Jun-14 13:59N 29°41' W 094°60'0 0.0
2018-Jun-14 13:30N 29°41' W 094°60'0 0.0
2018-Jun-14 13:00N 29°41' W 094°60'0 0.1
2018-Jun-14 12:30N 29°41' W 094°60'2 3.0
2018-Jun-14 11:59N 29°42' W 095°01'7 0.8
2018-Jun-14 03:51N 29°46' W 095°07'1 0.7
2018-Jun-14 01:49N 29°47' W 095°06'0 0.0
2018-Jun-14 01:09N 29°47' W 095°06'0 0.0
2018-Jun-13 03:51N 29°47' W 095°06'  
Track history (hours):
 
Tides and Currents Weather Stations Pressure Air Temp Water Temp Dewpoint Dewpoint Depression Visibility Wind Speed Wind Dir Waves Ship Positions

San Austin

Owner: Buffalo Mariner Service, Inc., Houston, TX. More information available from US FCC via Universal Licensing System and Coast Guard Vessel Documentation Center.

Last reported at 2018-Jun-21 09:34 UTC. Time now 2018-Jun-21 17:29 UTC.
Position N 29°43' W 095°01'.

Length 20 m; draft 3.2 m.

Type: Tug. MMSI: 367361210.

Date/timePositionNaut miles runAvg speedWind from/ knotsBaromVisibWave heightAir tempDewpointWater temp
2018-Jun-21 09:34N 29°43' W 095°01'1 7.0
2018-Jun-21 09:29N 29°43' W 095°01'2 4.8
2018-Jun-21 09:00N 29°41' W 094°60'0 0.4
2018-Jun-21 08:28N 29°41' W 094°60'0 0.0
2018-Jun-21 07:58N 29°41' W 094°60'0 0.0
2018-Jun-21 07:23N 29°41' W 094°60'0 0.0
2018-Jun-21 06:59N 29°41' W 094°60'0 0.0
2018-Jun-21 06:27N 29°41' W 094°60'0 0.0
2018-Jun-21 05:58N 29°41' W 094°60'0 0.0
2018-Jun-21 05:30N 29°41' W 094°60'0 0.0
2018-Jun-21 04:59N 29°41' W 094°60'0 0.0
2018-Jun-21 04:29N 29°41' W 094°60'0 0.0
2018-Jun-21 03:58N 29°41' W 094°60'0 0.0
2018-Jun-21 03:28N 29°41' W 094°60'0 0.0
2018-Jun-21 02:59N 29°41' W 094°60'0 0.0
2018-Jun-21 02:30N 29°41' W 094°60'0 0.0
2018-Jun-21 01:59N 29°41' W 094°60'0 0.0
2018-Jun-21 01:29N 29°41' W 094°60'0 0.0
2018-Jun-21 00:59N 29°41' W 094°60'0 0.0
2018-Jun-21 00:30N 29°41' W 094°60'0 0.0
2018-Jun-20 23:54N 29°41' W 094°60'0 0.0
2018-Jun-20 23:29N 29°41' W 094°60'0 0.0
2018-Jun-20 23:00N 29°41' W 094°60'1 2.1
2018-Jun-20 22:29N 29°42' W 095°00'7 0.2
2018-Jun-19 09:33N 29°46' W 095°06'  
2018-Jun-16 23:06N 29°42' W 095°01'1 8.0
2018-Jun-16 22:59N 29°42' W 095°00'1 2.0
2018-Jun-16 22:23N 29°41' W 095°00'0 0.0
2018-Jun-16 21:56N 29°41' W 095°00'0 0.0
2018-Jun-16 21:29N 29°41' W 095°00'0 0.0
2018-Jun-16 20:57N 29°41' W 095°00'0 0.0
2018-Jun-16 20:25N 29°41' W 095°00'0 0.0
2018-Jun-16 19:56N 29°41' W 095°00'0 0.0
2018-Jun-16 19:30N 29°41' W 095°00'0 0.0
2018-Jun-16 18:59N 29°41' W 095°00'0 0.0
2018-Jun-16 18:29N 29°41' W 095°00'0 0.0
2018-Jun-16 18:00N 29°41' W 095°00'0 0.0
2018-Jun-16 17:30N 29°41' W 095°00'0 0.0
2018-Jun-16 17:00N 29°41' W 095°00'0 0.0
2018-Jun-16 16:30N 29°41' W 095°00'0 0.0
2018-Jun-16 16:00N 29°41' W 095°00'0 0.0
2018-Jun-16 15:29N 29°41' W 095°00'1 1.9
2018-Jun-16 15:00N 29°42' W 094°60'7 0.2
2018-Jun-15 08:12N 29°46' W 095°06'2 4.7
2018-Jun-15 07:47N 29°45' W 095°04'3 1.5
2018-Jun-15 05:55N 29°44' W 095°01'0 0.0
2018-Jun-15 04:17N 29°44' W 095°01'0 0.0
2018-Jun-15 03:55N 29°44' W 095°01'0 0.0
2018-Jun-15 03:30N 29°44' W 095°01'0 0.0
2018-Jun-15 01:50N 29°44' W 095°01'2 0.5
2018-Jun-14 22:52N 29°42' W 095°01'2 4.6
2018-Jun-14 22:30N 29°41' W 094°60'0 0.0
2018-Jun-14 22:00N 29°41' W 094°60'0 0.0
2018-Jun-14 21:30N 29°41' W 094°60'0 0.0
2018-Jun-14 20:43N 29°41' W 094°60'0 0.0
2018-Jun-14 20:20N 29°41' W 094°60'0 0.0
2018-Jun-14 19:57N 29°41' W 094°60'0 0.0
2018-Jun-14 19:20N 29°41' W 094°60'0 0.0
2018-Jun-14 19:00N 29°41' W 094°60'0 0.0
2018-Jun-14 18:30N 29°41' W 094°60'0 0.0
2018-Jun-14 18:00N 29°41' W 094°60'0 0.0
2018-Jun-14 17:30N 29°41' W 094°60'0 0.0
2018-Jun-14 16:59N 29°41' W 094°60'0 0.0
2018-Jun-14 16:30N 29°41' W 094°60'0 0.0
2018-Jun-14 16:00N 29°41' W 094°60'0 0.0
2018-Jun-14 15:29N 29°41' W 094°60'0 0.0
2018-Jun-14 15:00N 29°41' W 094°60'0 0.0
2018-Jun-14 14:30N 29°41' W 094°60'0 0.0
2018-Jun-14 13:59N 29°41' W 094°60'0 0.0
2018-Jun-14 13:30N 29°41' W 094°60'0 0.0
2018-Jun-14 13:00N 29°41' W 094°60'0 0.1
2018-Jun-14 12:30N 29°41' W 094°60'2 3.0
2018-Jun-14 11:59N 29°42' W 095°01'7 0.8
2018-Jun-14 03:51N 29°46' W 095°07'1 0.7
2018-Jun-14 01:49N 29°47' W 095°06'0 0.0
2018-Jun-14 01:09N 29°47' W 095°06'0 0.0
2018-Jun-13 03:51N 29°47' W 095°06'  

Dump ship's entire track history